Richville, NY (13681)

8:10 PM EDT on April 29, 2017 (GMT -0400)
Richville | | Change Station

Elev 408 ft 44.41 °N, 75.39 °W | Updated 13 minutes ago

Partly Cloudy
Partly Cloudy
51.4 °F
Feels Like 51.4 °F
N
1.1
Wind Variable Wind from SE

Today
High -- | Low -- °F
--% Chance of Precip.
Yesterday
High -- | Low -- °F
Precip. -- in
Pressure 30.14 in
Visibility 10.0 miles
Clouds Clear
Dew Point 40 °F
Humidity 66%
Rainfall 0.00 in
Snow Depth Not available.
5:54 AM 8:03 PM
Waxing Crescent, 17% visible
METAR KOGS 292355Z AUTO 34010G16KT 10SM CLR 13/M01 A3014 RMK AO2 T01261006 10203 20126 TSNO
Pressure 30.14 in
Visibility 10.0 miles
Clouds Clear
Dew Point 40 °F
Humidity 66%
Rainfall 0.00 in
Snow Depth Not available.
5:54 AM 8:03 PM
Waxing Crescent, 17% visible
METAR KOGS 292355Z AUTO 34010G16KT 10SM CLR 13/M01 A3014 RMK AO2 T01261006 10203 20126 TSNO

Get Severe Weather Alerts

Thanks for signing up!

Be on the lookout for a verification email in your inbox.

You'll start receiving the daily forecast at 8 AM.

×

10-Day Weather Forecast

Almanac

Astronomy

Apr. 29, 2017 Rise Set
Actual Time
Civil Twilight
Nautical Twilight
Astronomical Twilight
Moon
Length of Visible Light
Length of Day
Tomorrow will be .
, % of the Moon is Illuminated

Today's Extremes

State Highs State Lows

Community

WunderPhotos

WunderBlog® & News

Nearby

Air Quality

  Air Quality AQ Index Pollutant
Not available.

Snow Depth

Station Depth Elevation

Earthquake Activity

City Distance Mag. Time & Date
Minimum magnitude displayed is 2.5.

Coastal Water Temperatures

Place Temperature

Stations

Nearby Weather Stations

Station Location Temp. Windchill Dew Point Humidity Wind Precip. Elev Updated Type
                   

Watches & Warnings

There are currently no watches in effect.